sensor_id;sensor_type;location;lat;lon;timestamp;P1;durP1;ratioP1;P2;durP2;ratioP2
5674;SDS011;2860;54.284;10.158;2023-01-19T00:00:05;39.03;;;25.80;;
5674;SDS011;2860;54.284;10.158;2023-01-19T00:02:34;46.28;;;28.73;;
5674;SDS011;2860;54.284;10.158;2023-01-19T00:05:00;39.22;;;26.58;;
5674;SDS011;2860;54.284;10.158;2023-01-19T00:07:28;40.35;;;26.20;;
5674;SDS011;2860;54.284;10.158;2023-01-19T00:09:54;33.55;;;23.95;;
5674;SDS011;2860;54.284;10.158;2023-01-19T00:12:20;35.40;;;22.38;;
5674;SDS011;2860;54.284;10.158;2023-01-19T00:14:45;42.38;;;26.73;;
5674;SDS011;2860;54.284;10.158;2023-01-19T00:17:11;50.08;;;26.73;;
5674;SDS011;2860;54.284;10.158;2023-01-19T00:19:36;45.22;;;26.40;;
5674;SDS011;2860;54.284;10.158;2023-01-19T00:22:02;44.35;;;25.75;;
5674;SDS011;2860;54.284;10.158;2023-01-19T00:24:30;38.08;;;26.38;;
5674;SDS011;2860;54.284;10.158;2023-01-19T00:26:56;45.30;;;25.25;;
5674;SDS011;2860;54.284;10.158;2023-01-19T00:29:21;45.00;;;27.98;;
5674;SDS011;2860;54.284;10.158;2023-01-19T00:31:48;43.38;;;27.80;;
5674;SDS011;2860;54.284;10.158;2023-01-19T00:34:13;42.58;;;28.17;;
5674;SDS011;2860;54.284;10.158;2023-01-19T00:36:39;40.92;;;26.45;;
5674;SDS011;2860;54.284;10.158;2023-01-19T00:39:05;46.35;;;28.70;;
5674;SDS011;2860;54.284;10.158;2023-01-19T00:41:31;42.85;;;25.98;;
5674;SDS011;2860;54.284;10.158;2023-01-19T00:44:15;43.90;;;28.10;;
5674;SDS011;2860;54.284;10.158;2023-01-19T00:46:40;41.63;;;26.55;;
5674;SDS011;2860;54.284;10.158;2023-01-19T00:49:06;40.97;;;26.58;;
5674;SDS011;2860;54.284;10.158;2023-01-19T00:51:31;43.03;;;26.77;;
5674;SDS011;2860;54.284;10.158;2023-01-19T00:53:57;44.28;;;27.70;;
5674;SDS011;2860;54.284;10.158;2023-01-19T00:56:31;47.97;;;27.40;;
5674;SDS011;2860;54.284;10.158;2023-01-19T00:58:57;43.80;;;27.75;;
5674;SDS011;2860;54.284;10.158;2023-01-19T01:01:23;47.20;;;29.15;;
5674;SDS011;2860;54.284;10.158;2023-01-19T01:03:48;42.05;;;27.38;;
5674;SDS011;2860;54.284;10.158;2023-01-19T01:06:14;46.20;;;26.27;;
5674;SDS011;2860;54.284;10.158;2023-01-19T01:08:39;45.13;;;26.85;;
5674;SDS011;2860;54.284;10.158;2023-01-19T01:11:05;42.15;;;26.50;;
5674;SDS011;2860;54.284;10.158;2023-01-19T01:13:30;42.80;;;26.45;;
5674;SDS011;2860;54.284;10.158;2023-01-19T01:15:56;35.53;;;25.73;;
5674;SDS011;2860;54.284;10.158;2023-01-19T01:18:21;43.55;;;26.10;;
5674;SDS011;2860;54.284;10.158;2023-01-19T01:20:47;39.85;;;25.67;;
5674;SDS011;2860;54.284;10.158;2023-01-19T01:23:13;43.05;;;26.67;;
5674;SDS011;2860;54.284;10.158;2023-01-19T01:25:38;41.17;;;28.05;;
5674;SDS011;2860;54.284;10.158;2023-01-19T01:28:05;36.47;;;23.70;;
5674;SDS011;2860;54.284;10.158;2023-01-19T01:30:32;37.42;;;25.65;;
5674;SDS011;2860;54.284;10.158;2023-01-19T01:32:59;43.90;;;27.00;;
5674;SDS011;2860;54.284;10.158;2023-01-19T01:35:25;41.53;;;26.13;;
5674;SDS011;2860;54.284;10.158;2023-01-19T01:37:51;49.20;;;27.80;;
5674;SDS011;2860;54.284;10.158;2023-01-19T01:40:17;43.60;;;27.17;;
5674;SDS011;2860;54.284;10.158;2023-01-19T01:42:43;34.88;;;24.02;;
5674;SDS011;2860;54.284;10.158;2023-01-19T01:48:01;46.85;;;26.30;;
5674;SDS011;2860;54.284;10.158;2023-01-19T01:50:34;38.75;;;25.98;;
5674;SDS011;2860;54.284;10.158;2023-01-19T01:53:09;43.38;;;25.33;;
5674;SDS011;2860;54.284;10.158;2023-01-19T01:55:40;38.67;;;24.88;;
5674;SDS011;2860;54.284;10.158;2023-01-19T01:58:08;38.83;;;25.83;;
5674;SDS011;2860;54.284;10.158;2023-01-19T02:00:35;38.75;;;23.95;;
5674;SDS011;2860;54.284;10.158;2023-01-19T02:03:21;37.45;;;25.08;;
5674;SDS011;2860;54.284;10.158;2023-01-19T02:05:49;35.55;;;23.00;;
5674;SDS011;2860;54.284;10.158;2023-01-19T02:08:19;37.75;;;23.58;;
5674;SDS011;2860;54.284;10.158;2023-01-19T02:11:10;37.00;;;24.55;;
5674;SDS011;2860;54.284;10.158;2023-01-19T02:13:54;38.35;;;23.80;;
5674;SDS011;2860;54.284;10.158;2023-01-19T02:16:20;40.97;;;24.58;;
5674;SDS011;2860;54.284;10.158;2023-01-19T02:18:46;37.13;;;25.60;;
5674;SDS011;2860;54.284;10.158;2023-01-19T02:21:13;35.50;;;23.50;;
5674;SDS011;2860;54.284;10.158;2023-01-19T02:23:53;44.60;;;25.15;;
5674;SDS011;2860;54.284;10.158;2023-01-19T02:26:24;33.95;;;21.42;;
5674;SDS011;2860;54.284;10.158;2023-01-19T02:28:59;44.05;;;24.67;;
5674;SDS011;2860;54.284;10.158;2023-01-19T02:31:32;40.28;;;25.13;;
5674;SDS011;2860;54.284;10.158;2023-01-19T02:33:59;41.08;;;25.17;;
5674;SDS011;2860;54.284;10.158;2023-01-19T02:36:29;42.80;;;26.95;;
5674;SDS011;2860;54.284;10.158;2023-01-19T02:39:06;36.53;;;25.38;;
5674;SDS011;2860;54.284;10.158;2023-01-19T02:41:36;40.83;;;25.42;;
5674;SDS011;2860;54.284;10.158;2023-01-19T02:44:05;41.70;;;28.63;;
5674;SDS011;2860;54.284;10.158;2023-01-19T02:46:32;36.88;;;26.73;;
5674;SDS011;2860;54.284;10.158;2023-01-19T02:48:58;37.17;;;25.35;;
5674;SDS011;2860;54.284;10.158;2023-01-19T02:51:25;37.30;;;26.27;;
5674;SDS011;2860;54.284;10.158;2023-01-19T02:53:57;43.83;;;27.23;;
5674;SDS011;2860;54.284;10.158;2023-01-19T02:57:00;44.17;;;25.77;;
5674;SDS011;2860;54.284;10.158;2023-01-19T03:04:58;42.17;;;24.58;;
5674;SDS011;2860;54.284;10.158;2023-01-19T03:10:19;35.30;;;25.27;;
5674;SDS011;2860;54.284;10.158;2023-01-19T03:15:48;34.70;;;24.90;;
5674;SDS011;2860;54.284;10.158;2023-01-19T03:18:18;41.10;;;27.10;;
5674;SDS011;2860;54.284;10.158;2023-01-19T03:20:46;36.17;;;26.13;;
5674;SDS011;2860;54.284;10.158;2023-01-19T03:23:15;43.05;;;24.20;;
5674;SDS011;2860;54.284;10.158;2023-01-19T03:25:42;37.00;;;25.90;;
5674;SDS011;2860;54.284;10.158;2023-01-19T03:28:11;35.38;;;25.42;;
5674;SDS011;2860;54.284;10.158;2023-01-19T03:30:41;33.97;;;25.25;;
5674;SDS011;2860;54.284;10.158;2023-01-19T03:33:14;41.20;;;24.42;;
5674;SDS011;2860;54.284;10.158;2023-01-19T03:35:47;34.72;;;24.55;;
5674;SDS011;2860;54.284;10.158;2023-01-19T03:38:17;36.17;;;24.92;;
5674;SDS011;2860;54.284;10.158;2023-01-19T03:40:49;42.22;;;25.55;;
5674;SDS011;2860;54.284;10.158;2023-01-19T03:43:23;40.50;;;26.00;;
5674;SDS011;2860;54.284;10.158;2023-01-19T03:45:50;34.90;;;24.77;;
5674;SDS011;2860;54.284;10.158;2023-01-19T03:48:18;40.28;;;25.52;;
5674;SDS011;2860;54.284;10.158;2023-01-19T03:50:45;42.80;;;25.50;;
5674;SDS011;2860;54.284;10.158;2023-01-19T03:53:12;36.90;;;26.95;;
5674;SDS011;2860;54.284;10.158;2023-01-19T03:55:44;36.33;;;25.48;;
5674;SDS011;2860;54.284;10.158;2023-01-19T03:58:11;34.75;;;24.13;;
5674;SDS011;2860;54.284;10.158;2023-01-19T04:00:37;35.88;;;24.65;;
5674;SDS011;2860;54.284;10.158;2023-01-19T04:03:03;42.17;;;25.55;;
5674;SDS011;2860;54.284;10.158;2023-01-19T04:05:30;38.20;;;25.98;;
5674;SDS011;2860;54.284;10.158;2023-01-19T04:07:56;37.47;;;25.10;;
5674;SDS011;2860;54.284;10.158;2023-01-19T04:10:22;36.92;;;24.38;;
5674;SDS011;2860;54.284;10.158;2023-01-19T04:12:48;34.58;;;23.55;;
5674;SDS011;2860;54.284;10.158;2023-01-19T04:15:13;41.70;;;23.98;;
5674;SDS011;2860;54.284;10.158;2023-01-19T04:17:40;31.75;;;23.10;;
5674;SDS011;2860;54.284;10.158;2023-01-19T04:20:06;35.22;;;24.25;;
5674;SDS011;2860;54.284;10.158;2023-01-19T04:22:32;33.05;;;23.20;;
5674;SDS011;2860;54.284;10.158;2023-01-19T04:24:58;37.40;;;23.15;;
5674;SDS011;2860;54.284;10.158;2023-01-19T04:27:23;37.35;;;24.27;;
5674;SDS011;2860;54.284;10.158;2023-01-19T04:29:50;38.45;;;25.17;;
5674;SDS011;2860;54.284;10.158;2023-01-19T04:32:15;35.03;;;24.92;;
5674;SDS011;2860;54.284;10.158;2023-01-19T04:34:41;42.88;;;26.02;;
5674;SDS011;2860;54.284;10.158;2023-01-19T04:37:07;47.70;;;26.08;;
5674;SDS011;2860;54.284;10.158;2023-01-19T04:39:33;45.05;;;27.60;;
5674;SDS011;2860;54.284;10.158;2023-01-19T04:41:59;34.97;;;25.85;;
5674;SDS011;2860;54.284;10.158;2023-01-19T04:44:25;38.33;;;25.15;;
5674;SDS011;2860;54.284;10.158;2023-01-19T04:46:51;28.88;;;20.00;;
5674;SDS011;2860;54.284;10.158;2023-01-19T04:49:17;42.53;;;26.13;;
5674;SDS011;2860;54.284;10.158;2023-01-19T04:51:42;36.35;;;25.05;;
5674;SDS011;2860;54.284;10.158;2023-01-19T04:54:08;40.80;;;25.67;;
5674;SDS011;2860;54.284;10.158;2023-01-19T04:56:34;41.60;;;27.20;;
5674;SDS011;2860;54.284;10.158;2023-01-19T04:59:00;35.20;;;23.88;;
5674;SDS011;2860;54.284;10.158;2023-01-19T05:01:25;34.72;;;23.42;;
5674;SDS011;2860;54.284;10.158;2023-01-19T05:03:51;35.70;;;23.95;;
5674;SDS011;2860;54.284;10.158;2023-01-19T05:06:17;38.63;;;24.80;;
5674;SDS011;2860;54.284;10.158;2023-01-19T05:08:42;36.53;;;24.67;;
5674;SDS011;2860;54.284;10.158;2023-01-19T05:11:08;30.58;;;23.60;;
5674;SDS011;2860;54.284;10.158;2023-01-19T05:13:33;40.88;;;24.50;;
5674;SDS011;2860;54.284;10.158;2023-01-19T05:15:59;33.80;;;22.60;;
5674;SDS011;2860;54.284;10.158;2023-01-19T05:18:25;30.75;;;22.20;;
5674;SDS011;2860;54.284;10.158;2023-01-19T05:20:50;33.30;;;23.63;;
5674;SDS011;2860;54.284;10.158;2023-01-19T05:23:16;31.45;;;22.98;;
5674;SDS011;2860;54.284;10.158;2023-01-19T05:25:41;34.30;;;23.20;;
5674;SDS011;2860;54.284;10.158;2023-01-19T05:28:08;34.55;;;23.77;;
5674;SDS011;2860;54.284;10.158;2023-01-19T05:30:33;37.78;;;24.63;;
5674;SDS011;2860;54.284;10.158;2023-01-19T05:32:59;38.58;;;22.73;;
5674;SDS011;2860;54.284;10.158;2023-01-19T05:35:24;34.08;;;24.02;;
5674;SDS011;2860;54.284;10.158;2023-01-19T05:37:50;35.70;;;22.77;;
5674;SDS011;2860;54.284;10.158;2023-01-19T05:40:15;39.25;;;24.55;;
5674;SDS011;2860;54.284;10.158;2023-01-19T05:42:41;33.13;;;23.23;;
5674;SDS011;2860;54.284;10.158;2023-01-19T05:45:07;42.67;;;24.52;;
5674;SDS011;2860;54.284;10.158;2023-01-19T05:47:33;34.50;;;21.95;;
5674;SDS011;2860;54.284;10.158;2023-01-19T05:49:58;32.92;;;22.38;;
5674;SDS011;2860;54.284;10.158;2023-01-19T05:52:23;38.83;;;23.00;;
5674;SDS011;2860;54.284;10.158;2023-01-19T05:54:49;36.15;;;22.85;;
5674;SDS011;2860;54.284;10.158;2023-01-19T05:57:16;37.20;;;24.25;;
5674;SDS011;2860;54.284;10.158;2023-01-19T05:59:42;36.42;;;23.45;;
5674;SDS011;2860;54.284;10.158;2023-01-19T06:02:07;37.38;;;23.27;;
5674;SDS011;2860;54.284;10.158;2023-01-19T06:04:33;31.48;;;22.10;;
5674;SDS011;2860;54.284;10.158;2023-01-19T06:06:58;40.20;;;23.25;;
5674;SDS011;2860;54.284;10.158;2023-01-19T06:09:24;32.67;;;24.42;;
5674;SDS011;2860;54.284;10.158;2023-01-19T06:11:50;31.98;;;22.42;;
5674;SDS011;2860;54.284;10.158;2023-01-19T06:14:18;34.63;;;23.80;;
5674;SDS011;2860;54.284;10.158;2023-01-19T06:16:43;40.35;;;24.35;;
5674;SDS011;2860;54.284;10.158;2023-01-19T06:19:09;37.72;;;25.05;;
5674;SDS011;2860;54.284;10.158;2023-01-19T06:21:35;36.35;;;23.05;;
5674;SDS011;2860;54.284;10.158;2023-01-19T06:24:00;35.45;;;25.48;;
5674;SDS011;2860;54.284;10.158;2023-01-19T06:26:26;38.72;;;24.48;;
5674;SDS011;2860;54.284;10.158;2023-01-19T06:28:51;38.42;;;25.25;;
5674;SDS011;2860;54.284;10.158;2023-01-19T06:31:17;40.15;;;24.48;;
5674;SDS011;2860;54.284;10.158;2023-01-19T06:33:42;35.65;;;24.65;;
5674;SDS011;2860;54.284;10.158;2023-01-19T06:36:08;41.45;;;24.15;;
5674;SDS011;2860;54.284;10.158;2023-01-19T06:38:33;42.88;;;24.67;;
5674;SDS011;2860;54.284;10.158;2023-01-19T06:40:59;36.65;;;24.45;;
5674;SDS011;2860;54.284;10.158;2023-01-19T06:43:27;40.97;;;25.98;;
5674;SDS011;2860;54.284;10.158;2023-01-19T06:45:53;41.65;;;26.00;;
5674;SDS011;2860;54.284;10.158;2023-01-19T06:48:20;40.22;;;25.77;;
5674;SDS011;2860;54.284;10.158;2023-01-19T06:50:46;38.42;;;24.80;;
5674;SDS011;2860;54.284;10.158;2023-01-19T06:53:12;34.42;;;24.02;;
5674;SDS011;2860;54.284;10.158;2023-01-19T06:55:40;32.67;;;22.65;;
5674;SDS011;2860;54.284;10.158;2023-01-19T06:58:07;39.15;;;24.85;;
5674;SDS011;2860;54.284;10.158;2023-01-19T07:00:33;44.47;;;24.35;;
5674;SDS011;2860;54.284;10.158;2023-01-19T07:02:58;41.30;;;33.13;;
5674;SDS011;2860;54.284;10.158;2023-01-19T07:05:24;33.78;;;24.92;;
5674;SDS011;2860;54.284;10.158;2023-01-19T07:07:50;34.00;;;23.58;;
5674;SDS011;2860;54.284;10.158;2023-01-19T07:10:16;30.17;;;21.92;;
5674;SDS011;2860;54.284;10.158;2023-01-19T07:12:42;31.95;;;22.83;;
5674;SDS011;2860;54.284;10.158;2023-01-19T07:15:10;35.35;;;22.80;;
5674;SDS011;2860;54.284;10.158;2023-01-19T07:17:36;30.92;;;23.30;;
5674;SDS011;2860;54.284;10.158;2023-01-19T07:20:02;33.15;;;24.23;;
5674;SDS011;2860;54.284;10.158;2023-01-19T07:22:27;32.40;;;21.98;;
5674;SDS011;2860;54.284;10.158;2023-01-19T07:24:53;29.95;;;21.95;;
5674;SDS011;2860;54.284;10.158;2023-01-19T07:27:18;27.60;;;21.30;;
5674;SDS011;2860;54.284;10.158;2023-01-19T07:29:44;30.00;;;21.83;;
5674;SDS011;2860;54.284;10.158;2023-01-19T07:32:09;39.28;;;23.02;;
5674;SDS011;2860;54.284;10.158;2023-01-19T07:34:35;31.95;;;22.77;;
5674;SDS011;2860;54.284;10.158;2023-01-19T07:37:01;30.63;;;22.67;;
5674;SDS011;2860;54.284;10.158;2023-01-19T07:39:27;30.48;;;21.65;;
5674;SDS011;2860;54.284;10.158;2023-01-19T07:41:54;31.52;;;21.73;;
5674;SDS011;2860;54.284;10.158;2023-01-19T07:44:20;29.15;;;20.50;;
5674;SDS011;2860;54.284;10.158;2023-01-19T07:46:45;28.88;;;21.40;;
5674;SDS011;2860;54.284;10.158;2023-01-19T07:49:11;29.58;;;20.40;;
5674;SDS011;2860;54.284;10.158;2023-01-19T07:51:37;27.67;;;20.30;;
5674;SDS011;2860;54.284;10.158;2023-01-19T07:54:02;28.30;;;21.33;;
5674;SDS011;2860;54.284;10.158;2023-01-19T07:56:28;28.05;;;18.98;;
5674;SDS011;2860;54.284;10.158;2023-01-19T07:58:55;24.58;;;20.13;;
5674;SDS011;2860;54.284;10.158;2023-01-19T08:01:20;22.35;;;17.90;;
5674;SDS011;2860;54.284;10.158;2023-01-19T08:03:47;26.98;;;20.02;;
5674;SDS011;2860;54.284;10.158;2023-01-19T08:06:19;27.17;;;18.75;;
5674;SDS011;2860;54.284;10.158;2023-01-19T08:08:46;27.08;;;19.60;;
5674;SDS011;2860;54.284;10.158;2023-01-19T08:11:12;26.17;;;20.27;;
5674;SDS011;2860;54.284;10.158;2023-01-19T08:13:39;27.15;;;19.63;;
5674;SDS011;2860;54.284;10.158;2023-01-19T08:16:05;28.75;;;19.50;;
5674;SDS011;2860;54.284;10.158;2023-01-19T08:18:30;26.27;;;18.67;;
5674;SDS011;2860;54.284;10.158;2023-01-19T08:20:59;26.13;;;20.52;;
5674;SDS011;2860;54.284;10.158;2023-01-19T08:23:24;27.00;;;20.35;;
5674;SDS011;2860;54.284;10.158;2023-01-19T08:25:51;27.30;;;18.70;;
5674;SDS011;2860;54.284;10.158;2023-01-19T08:28:17;25.33;;;18.98;;
5674;SDS011;2860;54.284;10.158;2023-01-19T08:30:44;28.08;;;21.45;;
5674;SDS011;2860;54.284;10.158;2023-01-19T08:33:10;29.38;;;20.15;;
5674;SDS011;2860;54.284;10.158;2023-01-19T08:35:38;27.48;;;19.55;;
5674;SDS011;2860;54.284;10.158;2023-01-19T08:38:05;26.23;;;19.25;;
5674;SDS011;2860;54.284;10.158;2023-01-19T08:40:32;27.50;;;20.13;;
5674;SDS011;2860;54.284;10.158;2023-01-19T08:42:59;31.70;;;22.58;;
5674;SDS011;2860;54.284;10.158;2023-01-19T08:45:30;29.80;;;20.42;;
5674;SDS011;2860;54.284;10.158;2023-01-19T08:47:56;27.10;;;19.08;;
5674;SDS011;2860;54.284;10.158;2023-01-19T08:50:24;28.92;;;19.60;;
5674;SDS011;2860;54.284;10.158;2023-01-19T08:52:50;29.75;;;19.63;;
5674;SDS011;2860;54.284;10.158;2023-01-19T08:55:16;29.13;;;20.38;;
5674;SDS011;2860;54.284;10.158;2023-01-19T08:57:41;34.45;;;21.50;;
5674;SDS011;2860;54.284;10.158;2023-01-19T09:00:07;25.38;;;18.63;;
5674;SDS011;2860;54.284;10.158;2023-01-19T09:02:35;30.85;;;20.23;;
5674;SDS011;2860;54.284;10.158;2023-01-19T09:05:00;28.58;;;20.25;;
5674;SDS011;2860;54.284;10.158;2023-01-19T09:07:26;28.42;;;20.02;;
5674;SDS011;2860;54.284;10.158;2023-01-19T09:09:52;28.15;;;19.65;;
5674;SDS011;2860;54.284;10.158;2023-01-19T09:12:18;25.98;;;18.55;;
5674;SDS011;2860;54.284;10.158;2023-01-19T09:14:43;27.30;;;20.67;;
5674;SDS011;2860;54.284;10.158;2023-01-19T09:17:09;26.08;;;19.33;;
5674;SDS011;2860;54.284;10.158;2023-01-19T09:19:35;26.10;;;18.65;;
5674;SDS011;2860;54.284;10.158;2023-01-19T09:22:00;28.42;;;18.58;;
5674;SDS011;2860;54.284;10.158;2023-01-19T09:24:26;22.23;;;17.50;;
5674;SDS011;2860;54.284;10.158;2023-01-19T09:26:51;22.42;;;17.13;;
5674;SDS011;2860;54.284;10.158;2023-01-19T09:29:17;22.88;;;17.38;;
5674;SDS011;2860;54.284;10.158;2023-01-19T09:31:42;24.88;;;17.35;;
5674;SDS011;2860;54.284;10.158;2023-01-19T09:34:09;22.50;;;18.00;;
5674;SDS011;2860;54.284;10.158;2023-01-19T09:36:36;22.48;;;17.70;;
5674;SDS011;2860;54.284;10.158;2023-01-19T09:39:03;23.77;;;17.63;;
5674;SDS011;2860;54.284;10.158;2023-01-19T09:41:29;18.92;;;16.90;;
5674;SDS011;2860;54.284;10.158;2023-01-19T09:43:59;23.33;;;16.35;;
5674;SDS011;2860;54.284;10.158;2023-01-19T09:49:04;24.05;;;17.27;;
5674;SDS011;2860;54.284;10.158;2023-01-19T09:51:41;23.88;;;18.30;;
5674;SDS011;2860;54.284;10.158;2023-01-19T09:56:42;26.92;;;18.20;;
5674;SDS011;2860;54.284;10.158;2023-01-19T10:05:01;23.98;;;18.05;;
5674;SDS011;2860;54.284;10.158;2023-01-19T10:10:22;25.45;;;18.17;;
5674;SDS011;2860;54.284;10.158;2023-01-19T10:15:40;29.60;;;21.45;;
5674;SDS011;2860;54.284;10.158;2023-01-19T10:18:25;27.58;;;19.90;;
5674;SDS011;2860;54.284;10.158;2023-01-19T10:21:03;28.98;;;19.58;;
5674;SDS011;2860;54.284;10.158;2023-01-19T10:23:43;34.10;;;19.75;;
5674;SDS011;2860;54.284;10.158;2023-01-19T10:26:20;25.17;;;19.00;;
5674;SDS011;2860;54.284;10.158;2023-01-19T10:28:49;27.45;;;20.23;;
5674;SDS011;2860;54.284;10.158;2023-01-19T10:31:20;29.83;;;21.23;;
5674;SDS011;2860;54.284;10.158;2023-01-19T10:33:50;31.88;;;20.42;;
5674;SDS011;2860;54.284;10.158;2023-01-19T10:36:33;28.15;;;20.60;;
5674;SDS011;2860;54.284;10.158;2023-01-19T10:39:00;31.77;;;21.52;;
5674;SDS011;2860;54.284;10.158;2023-01-19T10:41:44;28.73;;;20.73;;
5674;SDS011;2860;54.284;10.158;2023-01-19T10:44:15;32.40;;;22.35;;
5674;SDS011;2860;54.284;10.158;2023-01-19T10:46:58;31.65;;;22.48;;
5674;SDS011;2860;54.284;10.158;2023-01-19T10:49:29;30.40;;;20.10;;
5674;SDS011;2860;54.284;10.158;2023-01-19T10:52:00;37.22;;;26.35;;
5674;SDS011;2860;54.284;10.158;2023-01-19T10:54:27;27.88;;;19.73;;
5674;SDS011;2860;54.284;10.158;2023-01-19T10:57:02;28.33;;;20.08;;
5674;SDS011;2860;54.284;10.158;2023-01-19T11:02:22;26.00;;;19.13;;
5674;SDS011;2860;54.284;10.158;2023-01-19T11:04:55;24.15;;;17.38;;
5674;SDS011;2860;54.284;10.158;2023-01-19T11:07:30;24.00;;;18.40;;
5674;SDS011;2860;54.284;10.158;2023-01-19T11:12:42;25.92;;;16.88;;
5674;SDS011;2860;54.284;10.158;2023-01-19T11:15:15;24.58;;;17.83;;
5674;SDS011;2860;54.284;10.158;2023-01-19T11:17:49;26.52;;;17.38;;
5674;SDS011;2860;54.284;10.158;2023-01-19T11:20:17;26.75;;;18.23;;
5674;SDS011;2860;54.284;10.158;2023-01-19T11:23:02;23.35;;;17.15;;
5674;SDS011;2860;54.284;10.158;2023-01-19T11:25:30;22.67;;;16.88;;
5674;SDS011;2860;54.284;10.158;2023-01-19T11:27:58;27.05;;;18.95;;
5674;SDS011;2860;54.284;10.158;2023-01-19T11:30:25;27.63;;;18.13;;
5674;SDS011;2860;54.284;10.158;2023-01-19T11:32:51;27.08;;;18.13;;
5674;SDS011;2860;54.284;10.158;2023-01-19T11:35:33;24.30;;;17.48;;
5674;SDS011;2860;54.284;10.158;2023-01-19T11:38:04;26.00;;;17.27;;
5674;SDS011;2860;54.284;10.158;2023-01-19T11:40:30;24.52;;;18.10;;
5674;SDS011;2860;54.284;10.158;2023-01-19T11:42:58;25.55;;;18.67;;
5674;SDS011;2860;54.284;10.158;2023-01-19T11:45:23;21.48;;;17.58;;
5674;SDS011;2860;54.284;10.158;2023-01-19T11:47:50;23.27;;;16.83;;
5674;SDS011;2860;54.284;10.158;2023-01-19T11:50:21;22.77;;;16.80;;
5674;SDS011;2860;54.284;10.158;2023-01-19T11:53:21;23.05;;;16.67;;
5674;SDS011;2860;54.284;10.158;2023-01-19T11:58:39;25.23;;;18.70;;
5674;SDS011;2860;54.284;10.158;2023-01-19T12:01:20;23.52;;;16.88;;
5674;SDS011;2860;54.284;10.158;2023-01-19T12:06:47;26.15;;;19.73;;
5674;SDS011;2860;54.284;10.158;2023-01-19T12:09:23;29.20;;;18.60;;
5674;SDS011;2860;54.284;10.158;2023-01-19T12:12:05;28.02;;;19.65;;
5674;SDS011;2860;54.284;10.158;2023-01-19T12:14:38;28.70;;;19.60;;
5674;SDS011;2860;54.284;10.158;2023-01-19T12:17:13;27.85;;;19.50;;
5674;SDS011;2860;54.284;10.158;2023-01-19T12:19:44;22.73;;;18.42;;
5674;SDS011;2860;54.284;10.158;2023-01-19T12:22:21;28.83;;;19.38;;
5674;SDS011;2860;54.284;10.158;2023-01-19T12:24:49;27.58;;;19.45;;
5674;SDS011;2860;54.284;10.158;2023-01-19T12:27:36;28.85;;;19.30;;
5674;SDS011;2860;54.284;10.158;2023-01-19T12:30:08;25.17;;;18.13;;
5674;SDS011;2860;54.284;10.158;2023-01-19T12:32:44;29.55;;;19.30;;
5674;SDS011;2860;54.284;10.158;2023-01-19T12:38:21;27.00;;;18.25;;
5674;SDS011;2860;54.284;10.158;2023-01-19T12:41:13;22.88;;;17.83;;
5674;SDS011;2860;54.284;10.158;2023-01-19T12:43:40;26.27;;;17.75;;
5674;SDS011;2860;54.284;10.158;2023-01-19T12:46:19;27.00;;;18.38;;
5674;SDS011;2860;54.284;10.158;2023-01-19T12:48:51;28.55;;;18.38;;
5674;SDS011;2860;54.284;10.158;2023-01-19T12:51:21;27.95;;;17.63;;
5674;SDS011;2860;54.284;10.158;2023-01-19T12:53:54;27.40;;;17.90;;
5674;SDS011;2860;54.284;10.158;2023-01-19T12:56:28;24.02;;;16.42;;
5674;SDS011;2860;54.284;10.158;2023-01-19T12:58:55;24.73;;;17.00;;
5674;SDS011;2860;54.284;10.158;2023-01-19T13:01:21;23.13;;;17.50;;
5674;SDS011;2860;54.284;10.158;2023-01-19T13:03:59;22.50;;;15.85;;
5674;SDS011;2860;54.284;10.158;2023-01-19T13:09:56;20.42;;;16.52;;
5674;SDS011;2860;54.284;10.158;2023-01-19T13:14:37;20.20;;;15.55;;
5674;SDS011;2860;54.284;10.158;2023-01-19T13:17:05;22.48;;;15.73;;
5674;SDS011;2860;54.284;10.158;2023-01-19T13:19:43;26.23;;;17.50;;
5674;SDS011;2860;54.284;10.158;2023-01-19T13:25:22;23.80;;;15.00;;
5674;SDS011;2860;54.284;10.158;2023-01-19T13:27:54;22.10;;;16.60;;
5674;SDS011;2860;54.284;10.158;2023-01-19T13:30:21;23.23;;;16.77;;
5674;SDS011;2860;54.284;10.158;2023-01-19T13:32:51;19.65;;;15.18;;
5674;SDS011;2860;54.284;10.158;2023-01-19T13:35:19;20.60;;;15.63;;
5674;SDS011;2860;54.284;10.158;2023-01-19T13:37:45;22.92;;;16.20;;
5674;SDS011;2860;54.284;10.158;2023-01-19T13:40:35;19.00;;;15.40;;
5674;SDS011;2860;54.284;10.158;2023-01-19T13:43:15;19.70;;;14.77;;
5674;SDS011;2860;54.284;10.158;2023-01-19T13:45:46;16.63;;;12.35;;
5674;SDS011;2860;54.284;10.158;2023-01-19T13:48:15;14.75;;;12.52;;
5674;SDS011;2860;54.284;10.158;2023-01-19T13:50:54;15.30;;;12.68;;
5674;SDS011;2860;54.284;10.158;2023-01-19T13:53:21;13.48;;;11.98;;
5674;SDS011;2860;54.284;10.158;2023-01-19T13:56:03;12.15;;;10.90;;
5674;SDS011;2860;54.284;10.158;2023-01-19T13:58:41;12.55;;;10.45;;
5674;SDS011;2860;54.284;10.158;2023-01-19T14:01:18;12.02;;;10.00;;
5674;SDS011;2860;54.284;10.158;2023-01-19T14:03:45;16.85;;;10.77;;
5674;SDS011;2860;54.284;10.158;2023-01-19T14:09:14;15.85;;;10.50;;
5674;SDS011;2860;54.284;10.158;2023-01-19T14:11:47;13.52;;;9.38;;
5674;SDS011;2860;54.284;10.158;2023-01-19T14:14:38;10.10;;;9.00;;
5674;SDS011;2860;54.284;10.158;2023-01-19T14:17:20;12.77;;;9.70;;
5674;SDS011;2860;54.284;10.158;2023-01-19T14:19:51;16.95;;;9.23;;
5674;SDS011;2860;54.284;10.158;2023-01-19T14:22:18;10.85;;;9.75;;
5674;SDS011;2860;54.284;10.158;2023-01-19T14:24:44;13.20;;;9.00;;
5674;SDS011;2860;54.284;10.158;2023-01-19T14:27:15;10.82;;;9.25;;
5674;SDS011;2860;54.284;10.158;2023-01-19T14:29:42;13.10;;;8.60;;
5674;SDS011;2860;54.284;10.158;2023-01-19T14:32:13;13.40;;;9.27;;
5674;SDS011;2860;54.284;10.158;2023-01-19T14:37:43;12.18;;;9.40;;
5674;SDS011;2860;54.284;10.158;2023-01-19T14:45:03;11.90;;;9.15;;
5674;SDS011;2860;54.284;10.158;2023-01-19T14:47:41;10.68;;;9.57;;
5674;SDS011;2860;54.284;10.158;2023-01-19T14:50:25;9.85;;;8.85;;
5674;SDS011;2860;54.284;10.158;2023-01-19T14:52:58;13.23;;;8.82;;
5674;SDS011;2860;54.284;10.158;2023-01-19T14:55:25;9.88;;;7.20;;
5674;SDS011;2860;54.284;10.158;2023-01-19T14:57:57;11.07;;;7.30;;
5674;SDS011;2860;54.284;10.158;2023-01-19T15:00:22;7.68;;;6.90;;
5674;SDS011;2860;54.284;10.158;2023-01-19T15:02:48;10.07;;;6.68;;
5674;SDS011;2860;54.284;10.158;2023-01-19T15:05:14;10.55;;;6.25;;
5674;SDS011;2860;54.284;10.158;2023-01-19T15:07:41;8.88;;;6.68;;
5674;SDS011;2860;54.284;10.158;2023-01-19T15:10:10;11.48;;;6.18;;
5674;SDS011;2860;54.284;10.158;2023-01-19T15:12:43;9.00;;;7.15;;
5674;SDS011;2860;54.284;10.158;2023-01-19T15:15:12;6.13;;;5.78;;
5674;SDS011;2860;54.284;10.158;2023-01-19T15:17:39;8.93;;;7.10;;
5674;SDS011;2860;54.284;10.158;2023-01-19T15:20:05;13.75;;;8.13;;
5674;SDS011;2860;54.284;10.158;2023-01-19T15:22:38;8.50;;;7.65;;
5674;SDS011;2860;54.284;10.158;2023-01-19T15:25:03;12.95;;;7.53;;
5674;SDS011;2860;54.284;10.158;2023-01-19T15:27:29;10.75;;;8.13;;
5674;SDS011;2860;54.284;10.158;2023-01-19T15:29:54;8.30;;;6.82;;
5674;SDS011;2860;54.284;10.158;2023-01-19T15:32:20;6.97;;;6.43;;
5674;SDS011;2860;54.284;10.158;2023-01-19T15:34:46;8.80;;;5.78;;
5674;SDS011;2860;54.284;10.158;2023-01-19T15:37:11;10.27;;;7.60;;
5674;SDS011;2860;54.284;10.158;2023-01-19T15:39:37;10.07;;;7.10;;
5674;SDS011;2860;54.284;10.158;2023-01-19T15:42:03;9.50;;;7.05;;
5674;SDS011;2860;54.284;10.158;2023-01-19T15:44:30;9.82;;;7.43;;
5674;SDS011;2860;54.284;10.158;2023-01-19T15:46:56;9.55;;;8.55;;
5674;SDS011;2860;54.284;10.158;2023-01-19T15:49:21;7.82;;;7.05;;